Time;durP1;ratioP1;P1;durP2;ratioP2;P2;SDS_P1;SDS_P2;PMS_P1;PMS_P2;Temp;Humidity;BMP_temperature;BMP_pressure;BME280_temperature;BME280_humidity;BME280_pressure;Samples;Min_cycle;Max_cycle;Signal;HPM_P1;HPM_P2
2023/05/01 00:08:16;;;;;;;1999.90;999.90;;;12.70;99.90;;;;;;6702203;88;20190;-79
2023/05/01 00:18:17;;;;;;;1999.90;999.90;;;12.50;99.90;;;;;;6700101;88;20200;-79
2023/05/01 00:28:18;;;;;;;1999.90;999.90;;;12.40;99.90;;;;;;6700915;88;20265;-80
2023/05/01 00:38:19;;;;;;;1999.90;999.90;;;12.30;99.90;;;;;;6700700;88;20204;-80
2023/05/01 00:48:19;;;;;;;1999.90;999.90;;;12.00;99.90;;;;;;6699637;88;20197;-80
2023/05/01 00:58:20;;;;;;;1999.90;999.90;;;11.90;99.90;;;;;;6702779;88;20167;-79
2023/05/01 01:08:35;;;;;;;1999.90;999.90;;;11.70;99.90;;;;;;6699760;88;20627;-79
2023/05/01 01:18:42;;;;;;;1999.90;999.90;;;11.50;99.90;;;;;;6695098;88;20200;-80
2023/05/01 01:29:20;;;;;;;1999.90;999.90;;;11.40;99.90;;;;;;6692470;88;20240;-80
2023/05/01 01:39:33;;;;;;;1999.90;999.90;;;11.40;99.90;;;;;;6700182;88;20210;-79
2023/05/01 01:49:39;;;;;;;1999.90;999.90;;;11.30;99.90;;;;;;6693970;88;20187;-80
2023/05/01 01:59:40;;;;;;;;;;;11.30;99.90;;;;;;6692934;88;20215;-80
2023/05/01 02:09:43;;;;;;;1999.90;999.90;;;11.40;99.90;;;;;;6697236;88;20816;-80
2023/05/01 02:19:44;;;;;;;1999.90;999.90;;;11.40;99.90;;;;;;6693282;88;20188;-80
2023/05/01 02:29:44;;;;;;;1999.90;999.90;;;11.40;99.90;;;;;;6676198;89;20225;-80
2023/05/01 02:39:45;;;;;;;1999.90;999.90;;;11.50;99.90;;;;;;6676325;89;20195;-80
2023/05/01 02:49:47;;;;;;;1999.90;999.90;;;11.40;99.90;;;;;;6675995;89;20242;-81
2023/05/01 02:59:47;;;;;;;1999.90;999.90;;;11.50;99.90;;;;;;6686915;88;20194;-81
2023/05/01 03:09:48;;;;;;;1999.90;999.90;;;11.30;99.90;;;;;;6709549;88;20216;-80
2023/05/01 03:19:48;;;;;;;1999.90;999.90;;;11.40;99.90;;;;;;6697932;88;20203;-81
2023/05/01 03:29:49;;;;;;;1999.90;999.90;;;11.10;99.90;;;;;;6700915;88;20232;-81
2023/05/01 03:39:50;;;;;;;1999.90;999.90;;;10.90;99.90;;;;;;6702164;88;20647;-80
2023/05/01 03:49:51;;;;;;;1999.90;999.90;;;10.90;99.90;;;;;;6697653;88;20186;-81
2023/05/01 03:59:53;;;;;;;1999.90;999.90;;;10.80;99.90;;;;;;6693838;89;20618;-80
2023/05/01 04:09:53;;;;;;;1999.90;999.90;;;10.80;99.90;;;;;;6693355;88;20516;-81
2023/05/01 04:19:54;;;;;;;1999.90;999.90;;;10.80;99.90;;;;;;6694697;88;20869;-80
2023/05/01 04:29:54;;;;;;;1999.90;999.90;;;10.80;99.90;;;;;;6695107;88;20562;-81
2023/05/01 04:39:55;;;;;;;1999.90;999.90;;;10.80;99.90;;;;;;6699317;88;20706;-80
2023/05/01 04:49:55;;;;;;;1999.90;999.90;;;10.80;99.90;;;;;;6721329;88;20590;-80
2023/05/01 04:59:56;;;;;;;1999.90;999.90;;;11.00;99.90;;;;;;6694024;88;20226;-81
2023/05/01 05:09:56;;;;;;;1999.90;999.90;;;11.10;99.90;;;;;;6694426;88;20244;-80
2023/05/01 05:19:57;;;;;;;1999.90;999.90;;;11.20;99.90;;;;;;6692902;88;21065;-80
2023/05/01 05:29:59;;;;;;;1999.90;999.90;;;11.50;99.90;;;;;;6693557;88;20509;-80
2023/05/01 05:39:59;;;;;;;1999.90;999.90;;;11.70;99.90;;;;;;6694594;88;20814;-80
2023/05/01 05:50:00;;;;;;;1999.90;999.90;;;12.00;99.90;;;;;;6705797;88;20297;-80
2023/05/01 06:00:00;;;;;;;1999.90;999.90;;;12.20;99.90;;;;;;6698150;88;20580;-81
2023/05/01 06:10:04;;;;;;;1999.90;999.90;;;12.50;99.90;;;;;;6697938;88;20637;-80
2023/05/01 06:20:05;;;;;;;1999.90;999.90;;;12.80;99.90;;;;;;6690690;88;20518;-80
2023/05/01 06:30:08;;;;;;;1999.90;999.90;;;13.00;99.90;;;;;;6692817;88;20596;-80
2023/05/01 06:40:09;;;;;;;1999.90;999.90;;;13.30;99.90;;;;;;6687777;88;20178;-79
2023/05/01 06:50:10;;;;;;;1999.90;999.90;;;13.40;99.90;;;;;;6694176;88;20199;-80
2023/05/01 07:00:11;;;;;;;1999.90;999.90;;;13.40;99.90;;;;;;6692972;88;20314;-79
2023/05/01 07:10:12;;;;;;;1999.90;999.90;;;13.50;99.90;;;;;;6675415;89;20188;-80
2023/05/01 07:20:15;;;;;;;1999.90;999.90;;;13.70;99.90;;;;;;6674849;89;20208;-80
2023/05/01 07:30:16;;;;;;;1999.90;999.90;;;13.70;99.90;;;;;;6675133;89;20653;-79
2023/05/01 07:40:17;;;;;;;1999.90;999.90;;;13.70;99.90;;;;;;6674347;88;20706;-79
2023/05/01 07:50:17;;;;;;;1999.90;999.90;;;13.80;99.90;;;;;;6693528;88;20416;-79
2023/05/01 08:00:18;;;;;;;1999.90;999.90;;;13.80;99.90;;;;;;6705132;88;20202;-80
2023/05/01 08:10:19;;;;;;;1999.90;999.90;;;14.20;99.90;;;;;;6700515;88;20307;-80
2023/05/01 08:20:19;;;;;;;1999.90;999.90;;;14.30;99.90;;;;;;6696319;88;20175;-80
2023/05/01 08:30:20;;;;;;;1999.90;999.90;;;14.40;99.90;;;;;;6697263;88;20712;-80
2023/05/01 08:40:22;;;;;;;1999.90;999.90;;;14.90;99.90;;;;;;6701694;88;20503;-79
2023/05/01 08:50:24;;;;;;;1999.90;999.90;;;15.20;99.90;;;;;;6697503;88;20218;-79
2023/05/01 09:00:26;;;;;;;1999.90;999.90;;;15.40;99.90;;;;;;6699113;88;20190;-79
2023/05/01 09:10:28;;;;;;;1999.90;999.90;;;15.70;99.90;;;;;;6695103;88;20349;-79
2023/05/01 09:20:30;;;;;;;1999.90;999.90;;;16.20;99.90;;;;;;6704472;88;20432;-79
2023/05/01 09:30:35;;;;;;;1999.90;999.90;;;16.20;99.90;;;;;;6705175;88;20187;-79
2023/05/01 09:40:36;;;;;;;1999.90;999.90;;;16.50;99.90;;;;;;6697064;88;20201;-79
2023/05/01 09:50:38;;;;;;;1999.90;999.90;;;17.10;99.90;;;;;;6695976;88;20571;-78
2023/05/01 10:00:50;;;;;;;1999.90;999.90;;;17.30;99.90;;;;;;6690591;88;20187;-78
2023/05/01 10:11:04;;;;;;;1999.90;999.90;;;18.60;99.90;;;;;;6701723;88;20355;-80
2023/05/01 10:21:06;;;;;;;1999.90;999.90;;;18.70;99.90;;;;;;6691412;88;20635;-77
2023/05/01 10:31:07;;;;;;;1999.90;999.90;;;19.50;99.90;;;;;;6688473;88;20760;-80
2023/05/01 10:41:08;;;;;;;1999.90;999.90;;;20.80;99.00;;;;;;6692553;88;20700;-79
2023/05/01 10:51:11;;;;;;;1999.90;999.90;;;21.40;98.10;;;;;;6692817;88;20275;-80
2023/05/01 11:01:31;;;;;;;1999.90;999.90;;;21.60;97.10;;;;;;6688994;88;20212;-79
2023/05/01 11:11:31;;;;;;;1999.90;999.90;;;21.10;97.50;;;;;;6706166;88;20194;-80
2023/05/01 11:21:33;;;;;;;1999.90;999.90;;;20.70;97.30;;;;;;6691470;88;20712;-80
2023/05/01 11:31:34;;;;;;;1999.90;999.90;;;20.90;97.50;;;;;;6694562;88;20195;-78
2023/05/01 11:41:36;;;;;;;1999.90;999.90;;;20.50;97.30;;;;;;6696116;88;20891;-78
2023/05/01 11:51:36;;;;;;;1999.90;999.90;;;20.60;97.60;;;;;;6695168;88;20273;-79
2023/05/01 12:01:39;;;;;;;1999.90;999.90;;;20.50;98.10;;;;;;6700883;88;20229;-79
2023/05/01 12:11:41;;;;;;;1999.90;999.90;;;20.70;97.80;;;;;;6699324;88;20206;-79
2023/05/01 12:21:41;;;;;;;1999.90;999.90;;;20.90;96.70;;;;;;6702816;88;20207;-79
2023/05/01 12:31:47;;;;;;;1999.90;999.90;;;21.30;96.40;;;;;;6709215;88;20191;-80
2023/05/01 12:41:48;;;;;;;1999.90;999.90;;;21.80;95.70;;;;;;6703010;88;20183;-82
2023/05/01 12:51:51;;;;;;;1999.90;999.90;;;22.20;94.40;;;;;;6700146;88;20307;-80
2023/05/01 13:02:03;;;;;;;1999.90;999.90;;;23.60;93.40;;;;;;6697923;88;20186;-79
2023/05/01 13:12:05;;;;;;;1999.90;999.90;;;23.00;92.20;;;;;;6692725;88;20289;-79
2023/05/01 13:22:06;;;;;;;1999.90;999.90;;;22.60;92.30;;;;;;6695755;88;20771;-78
2023/05/01 13:32:10;;;;;;;1999.90;999.90;;;21.80;91.40;;;;;;6698886;88;20207;-78
2023/05/01 13:42:11;;;;;;;1999.90;999.90;;;21.50;91.50;;;;;;6703148;88;20182;-79
2023/05/01 13:52:16;;;;;;;1999.90;999.90;;;23.00;92.10;;;;;;6697885;88;20592;-79
2023/05/01 14:02:28;;;;;;;1999.90;999.90;;;21.30;94.60;;;;;;6696872;88;20211;-79
2023/05/01 14:12:30;;;;;;;1999.90;999.90;;;20.00;95.20;;;;;;6694598;88;20226;-79
2023/05/01 14:22:43;;;;;;;1999.90;999.90;;;19.40;95.90;;;;;;6696261;88;20180;-80
2023/05/01 14:32:44;;;;;;;1999.90;999.90;;;19.50;94.90;;;;;;6689645;88;20208;-79
2023/05/01 14:42:45;;;;;;;1999.90;999.90;;;19.00;96.00;;;;;;6694950;88;20205;-78
2023/05/01 14:52:47;;;;;;;1999.90;999.90;;;18.60;97.80;;;;;;6692978;88;20598;-78
2023/05/01 15:02:47;;;;;;;1999.90;999.90;;;17.70;98.00;;;;;;6695508;88;20217;-79
2023/05/01 15:12:49;;;;;;;1999.90;999.90;;;17.10;98.30;;;;;;6695797;88;20243;-78
2023/05/01 15:22:49;;;;;;;1999.90;999.90;;;17.20;98.50;;;;;;6695325;88;20561;-80
2023/05/01 15:32:50;;;;;;;1999.90;999.90;;;16.70;99.90;;;;;;6692472;88;20213;-79
2023/05/01 15:42:50;;;;;;;1999.90;999.90;;;16.10;99.90;;;;;;6723467;77;20189;-76
2023/05/01 15:52:51;;;;;;;1999.90;999.90;;;15.60;99.90;;;;;;6723920;88;20518;-76
2023/05/01 16:02:52;;;;;;;1999.90;999.90;;;15.60;99.90;;;;;;6721047;88;20213;-76
2023/05/01 16:12:52;;;;;;;1999.90;999.90;;;15.40;99.90;;;;;;6727216;88;20321;-76
2023/05/01 16:22:53;;;;;;;1999.90;999.90;;;15.20;99.90;;;;;;6731887;88;20205;-76
2023/05/01 16:32:54;;;;;;;1999.90;999.90;;;15.20;99.90;;;;;;6727426;88;20283;-76
2023/05/01 16:42:55;;;;;;;1999.90;999.90;;;15.30;99.90;;;;;;6727037;88;20345;-76
2023/05/01 16:52:57;;;;;;;1999.90;999.90;;;15.20;99.90;;;;;;6722628;88;20232;-76
2023/05/01 17:02:57;;;;;;;1999.90;999.90;;;15.00;99.90;;;;;;6729062;88;20214;-76
2023/05/01 17:12:59;;;;;;;1999.90;999.90;;;14.70;99.90;;;;;;6729442;88;20751;-76
2023/05/01 17:23:00;;;;;;;1999.90;999.90;;;14.20;99.90;;;;;;6733798;88;20240;-76
2023/05/01 17:33:00;;;;;;;1999.90;999.90;;;14.30;99.90;;;;;;6723562;88;20205;-78
2023/05/01 17:43:01;;;;;;;1999.90;999.90;;;14.50;99.90;;;;;;6731127;88;20217;-78
2023/05/01 17:53:02;;;;;;;1999.90;999.90;;;14.00;99.90;;;;;;6732249;88;20306;-77
2023/05/01 18:03:03;;;;;;;1999.90;999.90;;;13.80;99.90;;;;;;6725062;88;20193;-78
2023/05/01 18:13:03;;;;;;;1999.90;999.90;;;13.50;99.90;;;;;;6730624;88;20319;-79
2023/05/01 18:23:05;;;;;;;1999.90;999.90;;;13.20;99.90;;;;;;6730526;88;20186;-77
2023/05/01 18:33:06;;;;;;;1999.90;999.90;;;13.20;99.90;;;;;;6731868;88;20228;-78
2023/05/01 18:43:06;;;;;;;1999.90;999.90;;;13.10;99.90;;;;;;6736060;88;20239;-78
2023/05/01 18:53:07;;;;;;;1999.90;999.90;;;12.90;99.90;;;;;;6734220;88;20205;-79
2023/05/01 19:03:08;;;;;;;1999.90;999.90;;;12.90;99.90;;;;;;6729484;88;20193;-77
2023/05/01 19:13:09;;;;;;;1999.90;999.90;;;12.70;99.90;;;;;;6740064;88;20247;-78
2023/05/01 19:23:09;;;;;;;1999.90;999.90;;;12.60;99.90;;;;;;6731815;88;20199;-77
2023/05/01 19:33:10;;;;;;;1999.90;999.90;;;12.50;99.90;;;;;;6725385;88;20256;-79
2023/05/01 19:43:13;;;;;;;1999.90;999.90;;;12.40;99.90;;;;;;6731829;88;20176;-77
2023/05/01 19:53:14;;;;;;;1999.90;999.90;;;12.30;99.90;;;;;;6732118;88;20662;-78
2023/05/01 20:03:15;;;;;;;1999.90;999.90;;;12.10;99.90;;;;;;6730693;88;20255;-77
2023/05/01 20:13:15;;;;;;;1999.90;999.90;;;12.00;99.90;;;;;;6723275;88;21071;-77
2023/05/01 20:23:18;;;;;;;1999.90;999.90;;;11.90;99.90;;;;;;6731374;88;20193;-78
2023/05/01 20:33:19;;;;;;;1999.90;999.90;;;12.00;99.90;;;;;;6728938;88;20665;-77
2023/05/01 20:43:20;;;;;;;1999.90;999.90;;;11.90;99.90;;;;;;6722403;88;20243;-78
2023/05/01 20:53:20;;;;;;;1999.90;999.90;;;11.70;99.90;;;;;;6726991;88;20190;-78
2023/05/01 21:03:21;;;;;;;1999.90;999.90;;;11.50;99.90;;;;;;6720554;88;20749;-77
2023/05/01 21:13:23;;;;;;;1999.90;999.90;;;11.30;99.90;;;;;;6726389;88;20233;-78
2023/05/01 21:23:24;;;;;;;1999.90;999.90;;;11.30;99.90;;;;;;6725693;88;20363;-77
2023/05/01 21:33:27;;;;;;;1999.90;999.90;;;11.10;99.90;;;;;;6727174;88;20736;-78
2023/05/01 21:43:48;;;;;;;1999.90;999.90;;;11.20;99.90;;;;;;6730854;76;20192;-79
2023/05/01 21:53:48;;;;;;;1999.90;999.90;;;11.20;99.90;;;;;;6625319;89;20239;-81
2023/05/01 22:03:50;;;;;;;1999.90;999.90;;;10.90;99.90;;;;;;6622868;89;20220;-80
2023/05/01 22:13:50;;;;;;;1999.90;999.90;;;10.70;99.90;;;;;;6633833;89;20201;-81
2023/05/01 22:23:51;;;;;;;1999.90;999.90;;;10.60;99.90;;;;;;6627232;89;20706;-80
2023/05/01 22:33:55;;;;;;;1999.90;999.90;;;10.70;99.90;;;;;;6625967;89;20758;-81
2023/05/01 22:43:56;;;;;;;1999.90;999.90;;;10.90;99.90;;;;;;6625783;89;20209;-80
2023/05/01 22:53:56;;;;;;;1999.90;999.90;;;11.20;99.90;;;;;;6626921;89;20199;-81
2023/05/01 23:03:57;;;;;;;1999.90;999.90;;;11.30;99.90;;;;;;6641539;89;20216;-80
2023/05/01 23:13:58;;;;;;;1999.90;999.90;;;11.50;99.90;;;;;;6641130;89;20188;-80
2023/05/01 23:24:00;;;;;;;1999.90;999.90;;;11.40;99.90;;;;;;6641720;89;20200;-79
2023/05/01 23:34:01;;;;;;;1999.90;999.90;;;11.60;99.90;;;;;;6615682;89;20185;-80
2023/05/01 23:44:03;;;;;;;1999.90;999.90;;;11.70;99.90;;;;;;6634789;89;20763;-81
2023/05/01 23:54:03;;;;;;;1999.90;999.90;;;11.60;99.90;;;;;;6626804;89;20744;-81
